createdAt,value
2023-04-27T00:01:12.412Z,9.88
2023-04-27T00:06:14.051Z,9.98
2023-04-27T00:11:15.729Z,12.73
2023-04-27T00:16:17.554Z,10.43
2023-04-27T00:21:19.188Z,10.20
2023-04-27T00:26:22.385Z,11.23
2023-04-27T00:31:23.968Z,12.52
2023-04-27T00:36:25.590Z,13.10
2023-04-27T00:41:27.121Z,12.52
2023-04-27T00:46:29.565Z,13.70
2023-04-27T00:51:32.090Z,12.68
2023-04-27T00:56:33.606Z,14.52
2023-04-27T01:01:35.342Z,10.85
2023-04-27T01:06:36.852Z,12.68
2023-04-27T01:11:38.617Z,12.48
2023-04-27T01:16:40.785Z,12.93
2023-04-27T01:21:42.359Z,12.13
2023-04-27T01:26:43.839Z,11.85
2023-04-27T01:31:45.428Z,8.25
2023-04-27T01:36:46.998Z,12.27
2023-04-27T01:41:48.624Z,12.43
2023-04-27T01:46:50.699Z,11.13
2023-04-27T01:51:52.233Z,10.48
2023-04-27T01:56:53.758Z,9.73
2023-04-27T02:01:56.428Z,9.57
2023-04-27T02:06:58.041Z,12.95
2023-04-27T02:11:59.547Z,14.18
2023-04-27T02:17:01.099Z,13.75
2023-04-27T02:22:03.168Z,11.43
2023-04-27T02:27:05.095Z,18.85
2023-04-27T02:32:07.375Z,13.57
2023-04-27T02:37:08.989Z,11.10
2023-04-27T02:42:10.450Z,15.90
2023-04-27T02:47:11.978Z,11.00
2023-04-27T02:52:13.654Z,9.73
2023-04-27T02:57:15.250Z,9.45
2023-04-27T03:02:16.839Z,10.25
2023-04-27T03:07:18.444Z,11.40
2023-04-27T03:12:19.969Z,11.73
2023-04-27T03:17:21.549Z,9.25
2023-04-27T03:22:23.024Z,10.07
2023-04-27T03:27:24.538Z,8.13
2023-04-27T03:32:26.028Z,12.85
2023-04-27T03:37:28.621Z,11.57
2023-04-27T03:42:30.268Z,8.88
2023-04-27T03:47:31.778Z,12.88
2023-04-27T03:52:33.370Z,11.02
2023-04-27T03:57:34.884Z,7.80
2023-04-27T04:02:36.802Z,11.68
2023-04-27T04:07:38.422Z,10.43
2023-04-27T04:12:39.943Z,10.23
2023-04-27T04:17:41.560Z,8.15
2023-04-27T04:22:44.137Z,12.35
2023-04-27T04:27:45.603Z,8.18
2023-04-27T04:32:47.199Z,6.70
2023-04-27T04:37:48.685Z,11.70
2023-04-27T04:42:50.138Z,10.13
2023-04-27T04:47:54.421Z,9.02
2023-04-27T04:52:56.471Z,10.55
2023-04-27T04:57:57.934Z,12.23
2023-04-27T05:03:01.062Z,11.07
2023-04-27T05:08:02.805Z,7.43
2023-04-27T05:13:05.964Z,5.85
2023-04-27T05:18:08.744Z,10.63
2023-04-27T05:23:10.330Z,4.57
2023-04-27T05:28:11.821Z,8.52
2023-04-27T05:33:13.367Z,6.22
2023-04-27T05:38:17.417Z,9.00
2023-04-27T05:43:18.903Z,6.03
2023-04-27T05:48:20.539Z,11.18
2023-04-27T05:53:22.062Z,9.57
2023-04-27T05:58:23.952Z,12.18
2023-04-27T06:03:26.129Z,9.82
2023-04-27T06:08:28.040Z,8.23
2023-04-27T06:13:32.117Z,5.53
2023-04-27T06:18:33.712Z,6.50
2023-04-27T06:23:35.387Z,12.52
2023-04-27T06:28:39.269Z,8.30
2023-04-27T06:33:41.348Z,4.43
2023-04-27T06:38:42.908Z,7.90
2023-04-27T06:43:44.369Z,6.25
2023-04-27T06:48:46.462Z,9.13
2023-04-27T06:53:47.991Z,6.00
2023-04-27T06:58:49.505Z,4.22
2023-04-27T07:03:51.347Z,5.75
2023-04-27T07:08:53.111Z,7.72
2023-04-27T07:13:55.161Z,8.90
2023-04-27T07:18:56.688Z,7.40
2023-04-27T07:23:58.196Z,12.15
2023-04-27T07:28:59.740Z,8.20
2023-04-27T07:34:01.228Z,4.95
2023-04-27T07:39:04.319Z,5.40
2023-04-27T07:44:05.855Z,8.73
2023-04-27T07:49:07.433Z,7.22
2023-04-27T07:54:09.045Z,8.35
2023-04-27T07:59:10.752Z,6.57
2023-04-27T08:04:16.195Z,9.75
2023-04-27T08:09:18.006Z,5.93
2023-04-27T08:14:19.483Z,6.72
2023-04-27T08:19:21.179Z,4.95
2023-04-27T08:24:22.673Z,4.93
2023-04-27T08:29:28.043Z,6.20
2023-04-27T08:34:30.979Z,7.40
2023-04-27T08:39:32.521Z,5.55
2023-04-27T08:44:39.892Z,6.65
2023-04-27T08:49:41.778Z,5.00
2023-04-27T08:54:43.606Z,5.05
2023-04-27T08:59:45.275Z,7.50
2023-04-27T09:04:47.176Z,5.95
2023-04-27T09:09:49.011Z,7.85
2023-04-27T09:15:01.283Z,6.18
2023-04-27T09:20:13.016Z,5.35
2023-04-27T09:25:33.722Z,4.90
2023-04-27T09:30:37.781Z,5.68
2023-04-27T09:35:42.123Z,3.65
2023-04-27T09:40:43.831Z,4.25
2023-04-27T09:45:46.262Z,5.13
2023-04-27T09:50:49.267Z,4.55
2023-04-27T09:56:14.995Z,8.57
2023-04-27T10:01:25.706Z,6.85
2023-04-27T10:06:51.465Z,5.60
2023-04-27T10:11:55.113Z,6.82
2023-04-27T10:16:58.676Z,6.32
2023-04-27T10:22:03.670Z,2.90
2023-04-27T10:27:11.195Z,7.65
2023-04-27T10:32:14.293Z,4.40
2023-04-27T10:37:15.949Z,4.28
2023-04-27T10:42:28.653Z,6.97
2023-04-27T10:47:38.712Z,2.88
2023-04-27T10:52:49.264Z,6.60
2023-04-27T10:57:53.336Z,4.85
2023-04-27T11:02:56.951Z,4.70
2023-04-27T11:08:09.820Z,5.70
2023-04-27T11:13:13.968Z,4.38
2023-04-27T11:18:17.615Z,7.95
2023-04-27T11:23:27.252Z,7.20
2023-04-27T11:28:28.783Z,4.90
2023-04-27T11:33:30.814Z,6.28
2023-04-27T11:38:35.988Z,9.07
2023-04-27T11:43:49.640Z,5.72
2023-04-27T11:48:51.422Z,5.95
2023-04-27T11:53:52.907Z,5.57
2023-04-27T11:58:54.386Z,6.43
2023-04-27T12:03:55.997Z,7.47
2023-04-27T12:08:58.089Z,7.82
2023-04-27T12:14:00.058Z,6.28
2023-04-27T12:19:02.193Z,5.28
2023-04-27T12:24:03.822Z,5.95
2023-04-27T12:29:05.329Z,7.00
2023-04-27T12:34:06.962Z,6.22
2023-04-27T12:39:16.940Z,5.22
2023-04-27T12:44:19.748Z,6.60
2023-04-27T12:49:21.277Z,6.00
2023-04-27T12:54:22.748Z,5.40
2023-04-27T12:59:24.260Z,6.90
2023-04-27T13:04:26.057Z,5.28
2023-04-27T13:09:28.223Z,7.22
2023-04-27T13:14:30.364Z,7.60
2023-04-27T13:19:32.014Z,6.97
2023-04-27T13:24:34.855Z,5.32
2023-04-27T13:29:36.452Z,10.07
2023-04-27T13:34:38.454Z,7.28
2023-04-27T13:39:40.007Z,5.15
2023-04-27T13:44:41.528Z,6.20
2023-04-27T13:49:43.038Z,7.05
2023-04-27T13:54:44.568Z,6.18
2023-04-27T13:59:46.097Z,8.68
2023-04-27T14:04:47.741Z,8.25
2023-04-27T14:09:49.370Z,7.43
2023-04-27T14:14:51.420Z,11.48
2023-04-27T14:19:52.896Z,6.40
2023-04-27T14:24:56.421Z,7.55
2023-04-27T14:29:57.965Z,5.68
2023-04-27T14:34:59.443Z,6.60
2023-04-27T14:40:01.100Z,6.07
2023-04-27T14:45:02.583Z,6.72
2023-04-27T14:50:04.499Z,7.30
2023-04-27T14:55:07.048Z,5.97
2023-04-27T15:00:14.633Z,8.25
2023-04-27T15:05:16.326Z,5.88
2023-04-27T15:10:17.902Z,8.25
2023-04-27T15:15:19.407Z,6.95
2023-04-27T15:20:21.061Z,7.03
2023-04-27T15:25:22.646Z,8.07
2023-04-27T15:30:24.215Z,6.13
2023-04-27T15:35:25.828Z,8.23
2023-04-27T15:40:27.341Z,7.88
2023-04-27T15:45:29.250Z,12.77
2023-04-27T15:50:30.850Z,7.25
2023-04-27T15:55:32.394Z,6.75
2023-04-27T16:00:35.063Z,8.07
2023-04-27T16:05:36.778Z,8.30
2023-04-27T16:10:38.290Z,6.43
2023-04-27T16:15:39.790Z,5.32
2023-04-27T16:20:41.302Z,8.85
2023-04-27T16:25:43.017Z,8.30
2023-04-27T16:30:44.649Z,7.90
2023-04-27T16:35:46.156Z,8.30
2023-04-27T16:40:47.699Z,9.23
2023-04-27T16:45:49.227Z,12.15
2023-04-27T16:50:51.819Z,11.82
2023-04-27T16:55:54.346Z,9.93
2023-04-27T17:00:56.626Z,7.15
2023-04-27T17:05:58.215Z,5.05
2023-04-27T17:10:59.766Z,8.88
2023-04-27T17:16:01.385Z,7.82
2023-04-27T17:21:03.264Z,8.05
2023-04-27T17:26:05.007Z,9.65
2023-04-27T17:31:06.903Z,9.60
2023-04-27T17:36:08.572Z,6.57
2023-04-27T17:41:10.136Z,9.35
2023-04-27T17:46:11.700Z,13.38
2023-04-27T17:51:13.349Z,8.48
2023-04-27T17:56:14.847Z,8.90
2023-04-27T18:01:18.457Z,7.75
2023-04-27T18:06:21.357Z,6.32
2023-04-27T18:11:23.266Z,10.32
2023-04-27T18:16:25.157Z,5.72
2023-04-27T18:21:30.517Z,10.07
2023-04-27T18:26:35.301Z,7.72
2023-04-27T18:31:37.928Z,7.47
2023-04-27T18:36:39.511Z,6.18
2023-04-27T18:41:41.020Z,6.65
2023-04-27T18:46:42.691Z,7.35
2023-04-27T18:51:45.546Z,7.82
2023-04-27T18:56:50.709Z,9.55
2023-04-27T19:01:52.338Z,8.60
2023-04-27T19:06:54.022Z,9.63
2023-04-27T19:12:02.843Z,8.90
2023-04-27T19:17:05.502Z,10.20
2023-04-27T19:22:08.284Z,9.25
2023-04-27T19:27:11.538Z,8.52
2023-04-27T19:32:13.019Z,7.85
2023-04-27T19:37:14.562Z,9.43
2023-04-27T19:42:16.628Z,13.00
2023-04-27T19:47:18.144Z,10.85
2023-04-27T19:52:19.670Z,9.77
2023-04-27T19:57:21.696Z,11.45
2023-04-27T20:02:23.277Z,10.73
2023-04-27T20:07:24.801Z,12.75
2023-04-27T20:12:47.408Z,9.85
2023-04-27T20:17:48.363Z,9.10
2023-04-27T20:22:50.334Z,13.50
2023-04-27T20:27:51.835Z,13.18
2023-04-27T20:32:53.406Z,12.13
2023-04-27T20:37:54.964Z,13.15
2023-04-27T20:42:56.544Z,13.20
2023-04-27T20:47:58.306Z,12.70
2023-04-27T20:52:59.831Z,14.30
2023-04-27T20:58:01.469Z,13.23
2023-04-27T21:03:03.066Z,13.52
2023-04-27T21:08:04.653Z,12.55
2023-04-27T21:13:06.411Z,10.45
2023-04-27T21:18:13.407Z,13.43
2023-04-27T21:23:20.664Z,10.30
2023-04-27T21:28:22.178Z,14.70
2023-04-27T21:33:23.751Z,13.52
2023-04-27T21:38:25.266Z,15.70
2023-04-27T21:43:27.488Z,12.38
2023-04-27T21:48:29.013Z,12.07
2023-04-27T21:53:30.635Z,13.98
2023-04-27T21:58:32.191Z,13.13
2023-04-27T22:03:33.776Z,14.27
2023-04-27T22:08:35.707Z,12.52
2023-04-27T22:13:37.663Z,13.85
2023-04-27T22:18:39.146Z,11.85
2023-04-27T22:23:40.686Z,12.15
2023-04-27T22:28:42.239Z,13.45
2023-04-27T22:33:43.729Z,15.60
2023-04-27T22:38:45.473Z,15.93
2023-04-27T22:43:46.993Z,12.18
2023-04-27T22:48:50.302Z,14.80
2023-04-27T22:53:51.816Z,14.65
2023-04-27T22:58:53.331Z,12.40
2023-04-27T23:03:55.114Z,14.18
2023-04-27T23:08:56.749Z,12.30
2023-04-27T23:13:58.201Z,13.80
2023-04-27T23:18:59.680Z,13.45
2023-04-27T23:24:01.144Z,15.75
2023-04-27T23:29:03.022Z,13.65
2023-04-27T23:34:04.584Z,15.48
2023-04-27T23:39:06.103Z,13.20
2023-04-27T23:44:08.382Z,15.30
2023-04-27T23:49:09.935Z,16.00
2023-04-27T23:54:11.442Z,16.25
2023-04-27T23:59:14.966Z,14.65
